Westcliffe, CO (81252)

6:38 PM MST on November 27, 2014 (GMT -0700)
Courtyard Country Inn | Change Station
CLOSE
Current Station
Personal Weather Station
Location: Westcliffe, CO
Elevation: 7848 ft
Nearby Weather Stations

Elev 7848 ft 38.14 °N, 105.47 °W | Updated 4 seconds ago

Partly Cloudy
Partly Cloudy
50.8 °F
Feels Like 50.8 °F
N
0.0
Wind Variable Wind from SW
Gusts 6.0 mph

Today
High -- | Low -- °F
--% Chance of Precip.
Yesterday
High -- | Low -- °F
Precip. -- in
6:55 AM 4:43 PM
Waxing Crescent, 35% visible
Pressure 30.38 in
Visibility 10.0 miles
Clouds Clear
Dew Point 17 °F
Humidity 26%
Rainfall 0.00 in
Snow Depth Not available.
UV 0 out of 12
Pollen .10 out of 12
Air Quality Not available.
Flu Activity Not available.
METAR K04V 280134Z AUTO 07003KT 10SM CLR 01/M07 A3038 RMK AO2

More Conditions Fewer Conditions

Pressure 30.38 in
Visibility 10.0 miles
Clouds Clear
Dew Point 17 °F
Humidity 26%
Rainfall 0.00 in
Snow Depth Not available.
UV 0 out of 12
Pollen .10 out of 12
Air Quality Not available.
Flu Activity Not available.
METAR K04V 280134Z AUTO 07003KT 10SM CLR 01/M07 A3038 RMK AO2

More Conditions Fewer Conditions

10-Day Weather Forecast

Almanac

Astronomy

Nov. 27, 2014 Rise Set
Actual Time
Civil Twilight
Nautical Twilight
Astronomical Twilight
Moon
Length of Visible Light
Length of Day
Tomorrow will be .
, % of the Moon is Illuminated

Today's Extremes

State Highs State Lows

Community

WunderPhotos

Upload Photos

1,774,152 photos uploaded!

WunderBlogs® & News

Nearby

Air Quality

  Air Quality AQ Index Pollutant
Not available.

Snow Depth

Station Depth Elevation

Earthquake Activity

City Distance Mag. Time & Date
Minimum magnitude displayed is 2.5.

Coastal Water Temperatures

Place Temperature

Nearby Weather Stations